sensor_id;sensor_type;location;lat;lon;timestamp;P1;durP1;ratioP1;P2;durP2;ratioP2
76795;SDS011;65745;50.278;18.192;2023-03-31T00:00:54;18.40;;;15.50;;
76795;SDS011;65745;50.278;18.192;2023-03-31T00:03:29;17.10;;;14.50;;
76795;SDS011;65745;50.278;18.192;2023-03-31T00:06:03;19.90;;;16.70;;
76795;SDS011;65745;50.278;18.192;2023-03-31T00:08:36;24.00;;;18.20;;
76795;SDS011;65745;50.278;18.192;2023-03-31T00:11:08;26.50;;;19.60;;
76795;SDS011;65745;50.278;18.192;2023-03-31T00:13:41;28.20;;;20.20;;
76795;SDS011;65745;50.278;18.192;2023-03-31T00:16:13;28.70;;;22.30;;
76795;SDS011;65745;50.278;18.192;2023-03-31T00:18:45;31.80;;;20.80;;
76795;SDS011;65745;50.278;18.192;2023-03-31T00:21:19;28.50;;;21.80;;
76795;SDS011;65745;50.278;18.192;2023-03-31T00:23:58;33.30;;;24.40;;
76795;SDS011;65745;50.278;18.192;2023-03-31T00:26:32;28.40;;;19.80;;
76795;SDS011;65745;50.278;18.192;2023-03-31T00:29:05;25.00;;;19.00;;
76795;SDS011;65745;50.278;18.192;2023-03-31T00:31:39;22.20;;;17.90;;
76795;SDS011;65745;50.278;18.192;2023-03-31T00:34:11;23.60;;;16.20;;
76795;SDS011;65745;50.278;18.192;2023-03-31T00:36:43;21.50;;;16.70;;
76795;SDS011;65745;50.278;18.192;2023-03-31T00:39:17;22.00;;;17.40;;
76795;SDS011;65745;50.278;18.192;2023-03-31T00:41:49;19.40;;;16.10;;
76795;SDS011;65745;50.278;18.192;2023-03-31T00:44:22;20.80;;;16.10;;
76795;SDS011;65745;50.278;18.192;2023-03-31T00:46:55;17.50;;;13.40;;
76795;SDS011;65745;50.278;18.192;2023-03-31T00:49:32;17.30;;;13.90;;
76795;SDS011;65745;50.278;18.192;2023-03-31T00:52:09;17.90;;;15.40;;
76795;SDS011;65745;50.278;18.192;2023-03-31T00:54:46;19.70;;;14.00;;
76795;SDS011;65745;50.278;18.192;2023-03-31T00:57:23;15.80;;;13.90;;
76795;SDS011;65745;50.278;18.192;2023-03-31T01:00:00;18.10;;;14.50;;
76795;SDS011;65745;50.278;18.192;2023-03-31T01:02:42;17.50;;;14.30;;
76795;SDS011;65745;50.278;18.192;2023-03-31T01:05:21;20.80;;;15.30;;
76795;SDS011;65745;50.278;18.192;2023-03-31T01:07:56;18.90;;;15.80;;
76795;SDS011;65745;50.278;18.192;2023-03-31T01:10:32;21.60;;;16.40;;
76795;SDS011;65745;50.278;18.192;2023-03-31T01:13:10;18.30;;;15.10;;
76795;SDS011;65745;50.278;18.192;2023-03-31T01:15:44;16.30;;;13.40;;
76795;SDS011;65745;50.278;18.192;2023-03-31T01:18:16;20.20;;;14.60;;
76795;SDS011;65745;50.278;18.192;2023-03-31T01:20:55;18.90;;;14.00;;
76795;SDS011;65745;50.278;18.192;2023-03-31T01:23:53;18.10;;;13.40;;
76795;SDS011;65745;50.278;18.192;2023-03-31T01:26:48;14.80;;;13.20;;
76795;SDS011;65745;50.278;18.192;2023-03-31T01:29:38;17.00;;;13.60;;
76795;SDS011;65745;50.278;18.192;2023-03-31T01:35:38;18.20;;;15.70;;
76795;SDS011;65745;50.278;18.192;2023-03-31T01:38:38;20.00;;;16.80;;
76795;SDS011;65745;50.278;18.192;2023-03-31T01:41:25;16.50;;;12.80;;
76795;SDS011;65745;50.278;18.192;2023-03-31T01:44:06;15.00;;;13.20;;
76795;SDS011;65745;50.278;18.192;2023-03-31T01:46:47;20.10;;;16.10;;
76795;SDS011;65745;50.278;18.192;2023-03-31T01:49:26;17.60;;;15.60;;
76795;SDS011;65745;50.278;18.192;2023-03-31T01:52:05;14.30;;;12.80;;
76795;SDS011;65745;50.278;18.192;2023-03-31T01:54:46;14.30;;;12.30;;
76795;SDS011;65745;50.278;18.192;2023-03-31T01:57:25;14.70;;;12.10;;
76795;SDS011;65745;50.278;18.192;2023-03-31T02:00:02;15.10;;;13.40;;
76795;SDS011;65745;50.278;18.192;2023-03-31T02:02:41;20.70;;;18.80;;
76795;SDS011;65745;50.278;18.192;2023-03-31T02:05:20;18.40;;;16.70;;
76795;SDS011;65745;50.278;18.192;2023-03-31T02:07:56;19.40;;;15.00;;
76795;SDS011;65745;50.278;18.192;2023-03-31T02:10:34;16.80;;;15.00;;
76795;SDS011;65745;50.278;18.192;2023-03-31T02:13:09;14.30;;;11.20;;
76795;SDS011;65745;50.278;18.192;2023-03-31T02:15:44;14.30;;;11.80;;
76795;SDS011;65745;50.278;18.192;2023-03-31T02:18:21;11.80;;;10.10;;
76795;SDS011;65745;50.278;18.192;2023-03-31T02:20:55;20.70;;;18.60;;
76795;SDS011;65745;50.278;18.192;2023-03-31T02:23:30;24.90;;;21.70;;
76795;SDS011;65745;50.278;18.192;2023-03-31T02:26:04;20.00;;;17.90;;
76795;SDS011;65745;50.278;18.192;2023-03-31T02:28:40;26.40;;;21.30;;
76795;SDS011;65745;50.278;18.192;2023-03-31T02:31:16;36.90;;;25.80;;
76795;SDS011;65745;50.278;18.192;2023-03-31T02:33:58;33.10;;;24.10;;
76795;SDS011;65745;50.278;18.192;2023-03-31T02:36:32;29.90;;;21.40;;
76795;SDS011;65745;50.278;18.192;2023-03-31T02:39:07;23.60;;;17.10;;
76795;SDS011;65745;50.278;18.192;2023-03-31T02:41:44;23.10;;;18.60;;
76795;SDS011;65745;50.278;18.192;2023-03-31T02:44:16;20.70;;;15.60;;
76795;SDS011;65745;50.278;18.192;2023-03-31T02:46:48;21.20;;;17.00;;
76795;SDS011;65745;50.278;18.192;2023-03-31T02:49:21;21.60;;;16.20;;
76795;SDS011;65745;50.278;18.192;2023-03-31T02:52:04;22.10;;;14.80;;
76795;SDS011;65745;50.278;18.192;2023-03-31T02:54:53;27.90;;;19.90;;
76795;SDS011;65745;50.278;18.192;2023-03-31T02:57:56;25.70;;;16.40;;
76795;SDS011;65745;50.278;18.192;2023-03-31T03:00:43;19.70;;;12.70;;
76795;SDS011;65745;50.278;18.192;2023-03-31T03:03:28;17.50;;;13.40;;
76795;SDS011;65745;50.278;18.192;2023-03-31T03:06:15;15.90;;;13.40;;
76795;SDS011;65745;50.278;18.192;2023-03-31T03:09:07;9.30;;;8.10;;
76795;SDS011;65745;50.278;18.192;2023-03-31T03:11:55;9.30;;;8.40;;
76795;SDS011;65745;50.278;18.192;2023-03-31T03:14:37;9.60;;;8.60;;
76795;SDS011;65745;50.278;18.192;2023-03-31T03:17:16;10.80;;;8.30;;
76795;SDS011;65745;50.278;18.192;2023-03-31T03:19:55;10.40;;;7.80;;
76795;SDS011;65745;50.278;18.192;2023-03-31T03:22:29;9.80;;;8.20;;
76795;SDS011;65745;50.278;18.192;2023-03-31T03:25:01;11.10;;;8.40;;
76795;SDS011;65745;50.278;18.192;2023-03-31T03:27:34;10.20;;;8.70;;
76795;SDS011;65745;50.278;18.192;2023-03-31T03:30:08;8.40;;;7.50;;
76795;SDS011;65745;50.278;18.192;2023-03-31T03:32:41;8.70;;;7.30;;
76795;SDS011;65745;50.278;18.192;2023-03-31T03:35:14;9.70;;;8.50;;
76795;SDS011;65745;50.278;18.192;2023-03-31T03:37:46;14.10;;;9.00;;
76795;SDS011;65745;50.278;18.192;2023-03-31T03:40:19;27.20;;;15.50;;
76795;SDS011;65745;50.278;18.192;2023-03-31T03:42:50;21.20;;;12.80;;
76795;SDS011;65745;50.278;18.192;2023-03-31T03:45:23;13.70;;;11.80;;
76795;SDS011;65745;50.278;18.192;2023-03-31T03:47:55;16.50;;;11.20;;
76795;SDS011;65745;50.278;18.192;2023-03-31T03:50:27;21.10;;;15.30;;
76795;SDS011;65745;50.278;18.192;2023-03-31T03:52:59;17.10;;;12.50;;
76795;SDS011;65745;50.278;18.192;2023-03-31T03:55:31;13.90;;;10.60;;
76795;SDS011;65745;50.278;18.192;2023-03-31T03:58:04;15.00;;;9.70;;
76795;SDS011;65745;50.278;18.192;2023-03-31T04:00:36;12.40;;;9.20;;
76795;SDS011;65745;50.278;18.192;2023-03-31T04:03:08;15.60;;;9.40;;
76795;SDS011;65745;50.278;18.192;2023-03-31T04:05:40;11.30;;;7.90;;
76795;SDS011;65745;50.278;18.192;2023-03-31T04:08:12;10.50;;;8.30;;
76795;SDS011;65745;50.278;18.192;2023-03-31T04:10:44;14.70;;;9.70;;
76795;SDS011;65745;50.278;18.192;2023-03-31T04:13:18;18.70;;;12.30;;
76795;SDS011;65745;50.278;18.192;2023-03-31T04:15:50;13.40;;;9.50;;
76795;SDS011;65745;50.278;18.192;2023-03-31T04:18:22;20.70;;;13.30;;
76795;SDS011;65745;50.278;18.192;2023-03-31T04:20:54;17.90;;;11.80;;
76795;SDS011;65745;50.278;18.192;2023-03-31T04:23:34;12.10;;;9.20;;
76795;SDS011;65745;50.278;18.192;2023-03-31T04:26:06;10.30;;;8.60;;
76795;SDS011;65745;50.278;18.192;2023-03-31T04:28:38;9.60;;;7.90;;
76795;SDS011;65745;50.278;18.192;2023-03-31T04:31:15;31.70;;;29.40;;
76795;SDS011;65745;50.278;18.192;2023-03-31T04:33:53;11.40;;;9.10;;
76795;SDS011;65745;50.278;18.192;2023-03-31T04:36:29;10.10;;;9.20;;
76795;SDS011;65745;50.278;18.192;2023-03-31T04:39:01;16.10;;;12.80;;
76795;SDS011;65745;50.278;18.192;2023-03-31T04:41:34;21.80;;;12.60;;
76795;SDS011;65745;50.278;18.192;2023-03-31T04:44:06;25.40;;;23.20;;
76795;SDS011;65745;50.278;18.192;2023-03-31T04:46:38;16.40;;;12.70;;
76795;SDS011;65745;50.278;18.192;2023-03-31T04:49:10;22.60;;;16.80;;
76795;SDS011;65745;50.278;18.192;2023-03-31T04:51:42;16.70;;;13.80;;
76795;SDS011;65745;50.278;18.192;2023-03-31T04:54:14;16.40;;;14.70;;
76795;SDS011;65745;50.278;18.192;2023-03-31T04:56:46;17.40;;;12.70;;
76795;SDS011;65745;50.278;18.192;2023-03-31T04:59:18;27.60;;;21.50;;
76795;SDS011;65745;50.278;18.192;2023-03-31T05:01:51;34.00;;;26.10;;
76795;SDS011;65745;50.278;18.192;2023-03-31T05:04:24;25.10;;;19.70;;
76795;SDS011;65745;50.278;18.192;2023-03-31T05:06:56;26.60;;;16.80;;
76795;SDS011;65745;50.278;18.192;2023-03-31T05:09:29;24.20;;;19.20;;
76795;SDS011;65745;50.278;18.192;2023-03-31T05:12:03;17.60;;;14.30;;
76795;SDS011;65745;50.278;18.192;2023-03-31T05:14:35;18.70;;;13.00;;
76795;SDS011;65745;50.278;18.192;2023-03-31T05:17:08;18.40;;;12.10;;
76795;SDS011;65745;50.278;18.192;2023-03-31T05:19:40;14.70;;;12.10;;
76795;SDS011;65745;50.278;18.192;2023-03-31T05:22:12;14.60;;;12.10;;
76795;SDS011;65745;50.278;18.192;2023-03-31T05:24:50;18.30;;;12.80;;
76795;SDS011;65745;50.278;18.192;2023-03-31T05:27:22;17.50;;;11.30;;
76795;SDS011;65745;50.278;18.192;2023-03-31T05:29:54;13.60;;;11.30;;
76795;SDS011;65745;50.278;18.192;2023-03-31T05:32:27;45.90;;;34.30;;
76795;SDS011;65745;50.278;18.192;2023-03-31T05:35:00;15.20;;;13.00;;
76795;SDS011;65745;50.278;18.192;2023-03-31T05:37:32;13.60;;;9.90;;
76795;SDS011;65745;50.278;18.192;2023-03-31T05:40:05;13.20;;;10.40;;
76795;SDS011;65745;50.278;18.192;2023-03-31T05:42:39;18.50;;;13.90;;
76795;SDS011;65745;50.278;18.192;2023-03-31T05:45:12;15.70;;;10.70;;
76795;SDS011;65745;50.278;18.192;2023-03-31T05:47:44;12.20;;;9.40;;
76795;SDS011;65745;50.278;18.192;2023-03-31T05:50:17;16.60;;;13.30;;
76795;SDS011;65745;50.278;18.192;2023-03-31T05:52:49;15.70;;;12.20;;
76795;SDS011;65745;50.278;18.192;2023-03-31T05:55:26;13.20;;;11.80;;
76795;SDS011;65745;50.278;18.192;2023-03-31T05:58:01;15.70;;;11.50;;
76795;SDS011;65745;50.278;18.192;2023-03-31T06:00:34;17.80;;;14.90;;
76795;SDS011;65745;50.278;18.192;2023-03-31T06:03:07;16.90;;;11.90;;
76795;SDS011;65745;50.278;18.192;2023-03-31T06:05:45;14.60;;;11.10;;
76795;SDS011;65745;50.278;18.192;2023-03-31T06:08:18;12.90;;;9.40;;
76795;SDS011;65745;50.278;18.192;2023-03-31T06:10:50;9.30;;;8.40;;
76795;SDS011;65745;50.278;18.192;2023-03-31T06:13:23;14.60;;;12.50;;
76795;SDS011;65745;50.278;18.192;2023-03-31T06:15:56;18.00;;;13.80;;
76795;SDS011;65745;50.278;18.192;2023-03-31T06:18:29;12.80;;;10.80;;
76795;SDS011;65745;50.278;18.192;2023-03-31T06:21:03;8.30;;;7.50;;
76795;SDS011;65745;50.278;18.192;2023-03-31T06:23:36;9.50;;;7.40;;
76795;SDS011;65745;50.278;18.192;2023-03-31T06:26:10;9.00;;;7.60;;
76795;SDS011;65745;50.278;18.192;2023-03-31T06:28:43;8.40;;;7.30;;
76795;SDS011;65745;50.278;18.192;2023-03-31T06:31:16;9.50;;;6.40;;
76795;SDS011;65745;50.278;18.192;2023-03-31T06:33:50;9.50;;;7.20;;
76795;SDS011;65745;50.278;18.192;2023-03-31T06:36:22;9.10;;;6.80;;
76795;SDS011;65745;50.278;18.192;2023-03-31T06:38:55;8.90;;;7.50;;
76795;SDS011;65745;50.278;18.192;2023-03-31T06:41:27;11.30;;;10.00;;
76795;SDS011;65745;50.278;18.192;2023-03-31T06:43:59;16.20;;;13.50;;
76795;SDS011;65745;50.278;18.192;2023-03-31T06:46:31;17.20;;;14.80;;
76795;SDS011;65745;50.278;18.192;2023-03-31T06:49:04;14.20;;;12.70;;
76795;SDS011;65745;50.278;18.192;2023-03-31T06:51:36;14.10;;;10.90;;
76795;SDS011;65745;50.278;18.192;2023-03-31T06:54:09;7.70;;;6.40;;
76795;SDS011;65745;50.278;18.192;2023-03-31T06:56:41;10.20;;;9.10;;
76795;SDS011;65745;50.278;18.192;2023-03-31T06:59:13;12.90;;;11.30;;
76795;SDS011;65745;50.278;18.192;2023-03-31T07:01:45;8.70;;;7.80;;
76795;SDS011;65745;50.278;18.192;2023-03-31T07:04:18;6.30;;;5.30;;
76795;SDS011;65745;50.278;18.192;2023-03-31T07:06:51;6.60;;;4.30;;
76795;SDS011;65745;50.278;18.192;2023-03-31T07:09:24;7.30;;;5.20;;
76795;SDS011;65745;50.278;18.192;2023-03-31T07:11:56;6.80;;;5.10;;
76795;SDS011;65745;50.278;18.192;2023-03-31T07:14:29;6.10;;;5.00;;
76795;SDS011;65745;50.278;18.192;2023-03-31T07:17:02;7.30;;;4.60;;
76795;SDS011;65745;50.278;18.192;2023-03-31T07:19:34;6.20;;;5.30;;
76795;SDS011;65745;50.278;18.192;2023-03-31T07:22:10;6.70;;;5.80;;
76795;SDS011;65745;50.278;18.192;2023-03-31T07:24:42;6.40;;;5.10;;
76795;SDS011;65745;50.278;18.192;2023-03-31T07:27:15;9.00;;;5.20;;
76795;SDS011;65745;50.278;18.192;2023-03-31T07:29:47;7.30;;;5.10;;
76795;SDS011;65745;50.278;18.192;2023-03-31T07:32:19;5.90;;;4.20;;
76795;SDS011;65745;50.278;18.192;2023-03-31T07:34:55;6.30;;;3.90;;
76795;SDS011;65745;50.278;18.192;2023-03-31T07:37:26;5.00;;;3.90;;
76795;SDS011;65745;50.278;18.192;2023-03-31T07:40:04;7.80;;;4.70;;
76795;SDS011;65745;50.278;18.192;2023-03-31T07:42:38;5.90;;;4.60;;
76795;SDS011;65745;50.278;18.192;2023-03-31T07:45:10;4.60;;;4.00;;
76795;SDS011;65745;50.278;18.192;2023-03-31T07:47:43;7.40;;;5.30;;
76795;SDS011;65745;50.278;18.192;2023-03-31T07:50:18;6.50;;;4.90;;
76795;SDS011;65745;50.278;18.192;2023-03-31T07:52:52;4.50;;;3.90;;
76795;SDS011;65745;50.278;18.192;2023-03-31T07:55:25;4.50;;;3.30;;
76795;SDS011;65745;50.278;18.192;2023-03-31T07:57:57;5.10;;;3.70;;
76795;SDS011;65745;50.278;18.192;2023-03-31T08:00:30;4.60;;;3.20;;
76795;SDS011;65745;50.278;18.192;2023-03-31T08:03:02;5.50;;;3.20;;
76795;SDS011;65745;50.278;18.192;2023-03-31T08:05:35;5.20;;;3.80;;
76795;SDS011;65745;50.278;18.192;2023-03-31T08:08:07;4.20;;;3.20;;
76795;SDS011;65745;50.278;18.192;2023-03-31T08:10:39;6.70;;;3.60;;
76795;SDS011;65745;50.278;18.192;2023-03-31T08:13:11;4.70;;;3.80;;
76795;SDS011;65745;50.278;18.192;2023-03-31T08:15:44;6.10;;;3.50;;
76795;SDS011;65745;50.278;18.192;2023-03-31T08:18:19;5.40;;;3.70;;
76795;SDS011;65745;50.278;18.192;2023-03-31T08:20:51;5.00;;;3.70;;
76795;SDS011;65745;50.278;18.192;2023-03-31T08:23:23;6.10;;;2.90;;
76795;SDS011;65745;50.278;18.192;2023-03-31T08:26:06;4.50;;;3.20;;
76795;SDS011;65745;50.278;18.192;2023-03-31T08:28:43;4.50;;;3.00;;
76795;SDS011;65745;50.278;18.192;2023-03-31T08:31:18;4.30;;;3.00;;
76795;SDS011;65745;50.278;18.192;2023-03-31T08:33:55;5.90;;;3.30;;
76795;SDS011;65745;50.278;18.192;2023-03-31T08:36:29;5.50;;;3.60;;
76795;SDS011;65745;50.278;18.192;2023-03-31T08:39:02;4.20;;;3.20;;
76795;SDS011;65745;50.278;18.192;2023-03-31T08:41:41;6.90;;;3.50;;
76795;SDS011;65745;50.278;18.192;2023-03-31T08:44:21;6.40;;;3.50;;
76795;SDS011;65745;50.278;18.192;2023-03-31T08:47:01;5.70;;;3.40;;
76795;SDS011;65745;50.278;18.192;2023-03-31T08:49:38;5.30;;;3.20;;
76795;SDS011;65745;50.278;18.192;2023-03-31T08:52:16;5.10;;;3.20;;
76795;SDS011;65745;50.278;18.192;2023-03-31T08:54:55;3.80;;;3.00;;
76795;SDS011;65745;50.278;18.192;2023-03-31T08:57:34;6.10;;;3.40;;
76795;SDS011;65745;50.278;18.192;2023-03-31T09:00:15;5.70;;;3.70;;
76795;SDS011;65745;50.278;18.192;2023-03-31T09:02:51;6.90;;;3.20;;
76795;SDS011;65745;50.278;18.192;2023-03-31T09:05:35;5.70;;;3.70;;
76795;SDS011;65745;50.278;18.192;2023-03-31T09:08:32;6.40;;;3.80;;
76795;SDS011;65745;50.278;18.192;2023-03-31T09:11:10;4.90;;;4.00;;
76795;SDS011;65745;50.278;18.192;2023-03-31T09:14:06;5.50;;;4.10;;
76795;SDS011;65745;50.278;18.192;2023-03-31T09:16:49;6.60;;;4.20;;
76795;SDS011;65745;50.278;18.192;2023-03-31T09:19:32;5.40;;;4.20;;
76795;SDS011;65745;50.278;18.192;2023-03-31T09:22:12;6.00;;;4.10;;
76795;SDS011;65745;50.278;18.192;2023-03-31T09:24:49;5.20;;;4.00;;
76795;SDS011;65745;50.278;18.192;2023-03-31T09:27:26;8.60;;;4.80;;
76795;SDS011;65745;50.278;18.192;2023-03-31T09:30:03;5.20;;;4.20;;
76795;SDS011;65745;50.278;18.192;2023-03-31T09:32:43;7.90;;;4.50;;
76795;SDS011;65745;50.278;18.192;2023-03-31T09:35:18;8.30;;;5.10;;
76795;SDS011;65745;50.278;18.192;2023-03-31T09:40:26;7.70;;;4.60;;
76795;SDS011;65745;50.278;18.192;2023-03-31T09:42:59;6.00;;;4.40;;
76795;SDS011;65745;50.278;18.192;2023-03-31T09:45:34;8.50;;;3.80;;
76795;SDS011;65745;50.278;18.192;2023-03-31T09:48:09;6.70;;;3.10;;
76795;SDS011;65745;50.278;18.192;2023-03-31T09:50:46;7.90;;;3.50;;
76795;SDS011;65745;50.278;18.192;2023-03-31T09:53:23;6.60;;;3.60;;
76795;SDS011;65745;50.278;18.192;2023-03-31T09:56:01;8.20;;;4.50;;
76795;SDS011;65745;50.278;18.192;2023-03-31T09:58:41;5.30;;;4.30;;
76795;SDS011;65745;50.278;18.192;2023-03-31T10:01:14;6.70;;;4.30;;
76795;SDS011;65745;50.278;18.192;2023-03-31T10:03:48;7.60;;;4.20;;
76795;SDS011;65745;50.278;18.192;2023-03-31T10:06:22;5.70;;;4.00;;
76795;SDS011;65745;50.278;18.192;2023-03-31T10:08:55;6.40;;;4.10;;
76795;SDS011;65745;50.278;18.192;2023-03-31T10:11:30;6.70;;;4.90;;
76795;SDS011;65745;50.278;18.192;2023-03-31T10:14:04;6.50;;;4.60;;
76795;SDS011;65745;50.278;18.192;2023-03-31T10:16:43;6.70;;;4.60;;
76795;SDS011;65745;50.278;18.192;2023-03-31T10:19:20;6.50;;;4.70;;
76795;SDS011;65745;50.278;18.192;2023-03-31T10:21:56;6.30;;;3.90;;
76795;SDS011;65745;50.278;18.192;2023-03-31T10:24:36;4.90;;;3.20;;
76795;SDS011;65745;50.278;18.192;2023-03-31T10:27:16;5.50;;;4.20;;
76795;SDS011;65745;50.278;18.192;2023-03-31T10:29:53;6.00;;;4.40;;
76795;SDS011;65745;50.278;18.192;2023-03-31T10:32:27;7.80;;;4.60;;
76795;SDS011;65745;50.278;18.192;2023-03-31T10:35:04;7.90;;;4.50;;
76795;SDS011;65745;50.278;18.192;2023-03-31T10:37:44;6.10;;;3.80;;
76795;SDS011;65745;50.278;18.192;2023-03-31T10:40:21;5.60;;;3.40;;
76795;SDS011;65745;50.278;18.192;2023-03-31T10:43:01;6.50;;;4.10;;
76795;SDS011;65745;50.278;18.192;2023-03-31T10:45:42;6.20;;;3.20;;
76795;SDS011;65745;50.278;18.192;2023-03-31T10:48:18;5.50;;;3.90;;
76795;SDS011;65745;50.278;18.192;2023-03-31T10:50:53;10.60;;;4.50;;
76795;SDS011;65745;50.278;18.192;2023-03-31T10:53:28;6.90;;;4.00;;
76795;SDS011;65745;50.278;18.192;2023-03-31T10:56:16;6.60;;;4.70;;
76795;SDS011;65745;50.278;18.192;2023-03-31T10:59:10;5.20;;;3.60;;
76795;SDS011;65745;50.278;18.192;2023-03-31T11:01:57;7.00;;;3.90;;
76795;SDS011;65745;50.278;18.192;2023-03-31T11:04:42;5.20;;;3.60;;
76795;SDS011;65745;50.278;18.192;2023-03-31T11:07:25;6.70;;;3.80;;
76795;SDS011;65745;50.278;18.192;2023-03-31T11:10:16;4.90;;;3.50;;
76795;SDS011;65745;50.278;18.192;2023-03-31T11:13:01;6.00;;;3.70;;
76795;SDS011;65745;50.278;18.192;2023-03-31T11:15:39;7.00;;;3.40;;
76795;SDS011;65745;50.278;18.192;2023-03-31T11:18:30;5.70;;;3.80;;
76795;SDS011;65745;50.278;18.192;2023-03-31T11:21:17;6.80;;;4.10;;
76795;SDS011;65745;50.278;18.192;2023-03-31T11:23:59;5.90;;;4.00;;
76795;SDS011;65745;50.278;18.192;2023-03-31T11:26:41;5.20;;;3.40;;
76795;SDS011;65745;50.278;18.192;2023-03-31T11:29:27;6.50;;;3.20;;
76795;SDS011;65745;50.278;18.192;2023-03-31T11:32:15;7.80;;;3.30;;
76795;SDS011;65745;50.278;18.192;2023-03-31T11:35:13;5.90;;;2.30;;
76795;SDS011;65745;50.278;18.192;2023-03-31T11:38:08;6.70;;;2.70;;
76795;SDS011;65745;50.278;18.192;2023-03-31T11:40:59;8.50;;;3.10;;
76795;SDS011;65745;50.278;18.192;2023-03-31T11:43:38;3.60;;;2.40;;
76795;SDS011;65745;50.278;18.192;2023-03-31T11:46:17;4.50;;;2.50;;
76795;SDS011;65745;50.278;18.192;2023-03-31T11:48:52;5.50;;;2.50;;
76795;SDS011;65745;50.278;18.192;2023-03-31T11:51:29;5.00;;;2.40;;
76795;SDS011;65745;50.278;18.192;2023-03-31T11:54:12;4.70;;;2.00;;
76795;SDS011;65745;50.278;18.192;2023-03-31T11:56:53;3.90;;;1.80;;
76795;SDS011;65745;50.278;18.192;2023-03-31T11:59:27;5.40;;;2.30;;
76795;SDS011;65745;50.278;18.192;2023-03-31T12:02:03;5.50;;;2.50;;
76795;SDS011;65745;50.278;18.192;2023-03-31T12:04:44;8.40;;;2.30;;
76795;SDS011;65745;50.278;18.192;2023-03-31T12:07:23;6.50;;;2.40;;
76795;SDS011;65745;50.278;18.192;2023-03-31T12:10:02;6.80;;;1.90;;
76795;SDS011;65745;50.278;18.192;2023-03-31T12:12:42;4.20;;;1.80;;
76795;SDS011;65745;50.278;18.192;2023-03-31T12:15:19;5.50;;;2.50;;
76795;SDS011;65745;50.278;18.192;2023-03-31T12:17:56;5.80;;;2.20;;
76795;SDS011;65745;50.278;18.192;2023-03-31T12:20:33;7.10;;;2.00;;
76795;SDS011;65745;50.278;18.192;2023-03-31T12:23:11;5.70;;;2.10;;
76795;SDS011;65745;50.278;18.192;2023-03-31T12:25:49;5.70;;;2.20;;
76795;SDS011;65745;50.278;18.192;2023-03-31T12:28:27;5.60;;;2.40;;
76795;SDS011;65745;50.278;18.192;2023-03-31T12:31:01;4.90;;;2.50;;
76795;SDS011;65745;50.278;18.192;2023-03-31T12:33:36;4.00;;;2.60;;
76795;SDS011;65745;50.278;18.192;2023-03-31T12:36:17;7.00;;;3.40;;
76795;SDS011;65745;50.278;18.192;2023-03-31T12:39:08;6.70;;;3.90;;
76795;SDS011;65745;50.278;18.192;2023-03-31T12:42:00;7.90;;;3.50;;
76795;SDS011;65745;50.278;18.192;2023-03-31T12:44:54;7.00;;;3.70;;
76795;SDS011;65745;50.278;18.192;2023-03-31T12:47:37;5.20;;;3.20;;
76795;SDS011;65745;50.278;18.192;2023-03-31T12:50:21;6.10;;;4.00;;
76795;SDS011;65745;50.278;18.192;2023-03-31T12:53:04;7.00;;;4.00;;
76795;SDS011;65745;50.278;18.192;2023-03-31T12:55:47;7.80;;;4.00;;
76795;SDS011;65745;50.278;18.192;2023-03-31T12:58:42;7.90;;;3.90;;
76795;SDS011;65745;50.278;18.192;2023-03-31T13:01:19;6.80;;;3.90;;
76795;SDS011;65745;50.278;18.192;2023-03-31T13:03:54;4.60;;;3.30;;
76795;SDS011;65745;50.278;18.192;2023-03-31T13:06:51;6.10;;;3.80;;
76795;SDS011;65745;50.278;18.192;2023-03-31T13:09:38;4.90;;;3.40;;
76795;SDS011;65745;50.278;18.192;2023-03-31T13:12:18;10.80;;;6.50;;
76795;SDS011;65745;50.278;18.192;2023-03-31T13:14:53;8.80;;;6.10;;
76795;SDS011;65745;50.278;18.192;2023-03-31T13:17:29;8.70;;;4.80;;
76795;SDS011;65745;50.278;18.192;2023-03-31T13:20:23;10.30;;;5.40;;
76795;SDS011;65745;50.278;18.192;2023-03-31T13:23:02;27.80;;;12.10;;
76795;SDS011;65745;50.278;18.192;2023-03-31T13:25:38;38.10;;;17.40;;
76795;SDS011;65745;50.278;18.192;2023-03-31T13:28:16;23.10;;;16.30;;
76795;SDS011;65745;50.278;18.192;2023-03-31T13:31:02;29.00;;;22.50;;
76795;SDS011;65745;50.278;18.192;2023-03-31T13:33:46;12.10;;;9.70;;
76795;SDS011;65745;50.278;18.192;2023-03-31T13:36:34;11.30;;;10.00;;
76795;SDS011;65745;50.278;18.192;2023-03-31T13:39:32;9.30;;;6.50;;
76795;SDS011;65745;50.278;18.192;2023-03-31T13:42:26;11.10;;;6.70;;
76795;SDS011;65745;50.278;18.192;2023-03-31T13:45:20;12.60;;;8.70;;
76795;SDS011;65745;50.278;18.192;2023-03-31T13:48:06;10.80;;;6.90;;
76795;SDS011;65745;50.278;18.192;2023-03-31T13:51:00;7.50;;;5.20;;
76795;SDS011;65745;50.278;18.192;2023-03-31T13:53:55;7.30;;;4.60;;
76795;SDS011;65745;50.278;18.192;2023-03-31T13:57:16;7.70;;;3.80;;
76795;SDS011;65745;50.278;18.192;2023-03-31T14:02:57;7.10;;;4.30;;
76795;SDS011;65745;50.278;18.192;2023-03-31T14:05:45;6.60;;;4.70;;
76795;SDS011;65745;50.278;18.192;2023-03-31T14:08:22;9.20;;;4.70;;
76795;SDS011;65745;50.278;18.192;2023-03-31T14:11:20;7.90;;;4.40;;
76795;SDS011;65745;50.278;18.192;2023-03-31T14:14:04;6.90;;;4.10;;
76795;SDS011;65745;50.278;18.192;2023-03-31T14:16:43;8.50;;;4.90;;
76795;SDS011;65745;50.278;18.192;2023-03-31T14:22:15;6.10;;;3.80;;
76795;SDS011;65745;50.278;18.192;2023-03-31T14:24:53;5.70;;;3.70;;
76795;SDS011;65745;50.278;18.192;2023-03-31T14:27:38;5.50;;;3.40;;
76795;SDS011;65745;50.278;18.192;2023-03-31T14:30:24;6.20;;;3.80;;
76795;SDS011;65745;50.278;18.192;2023-03-31T14:33:06;4.80;;;4.10;;
76795;SDS011;65745;50.278;18.192;2023-03-31T14:35:48;5.70;;;4.10;;
76795;SDS011;65745;50.278;18.192;2023-03-31T14:38:29;4.30;;;3.60;;
76795;SDS011;65745;50.278;18.192;2023-03-31T14:41:02;6.40;;;4.10;;
76795;SDS011;65745;50.278;18.192;2023-03-31T14:43:35;7.70;;;4.80;;
76795;SDS011;65745;50.278;18.192;2023-03-31T14:46:17;7.40;;;4.60;;
76795;SDS011;65745;50.278;18.192;2023-03-31T14:48:51;8.20;;;5.20;;
76795;SDS011;65745;50.278;18.192;2023-03-31T14:51:29;8.10;;;5.20;;
76795;SDS011;65745;50.278;18.192;2023-03-31T14:54:02;7.60;;;5.10;;
76795;SDS011;65745;50.278;18.192;2023-03-31T14:56:36;8.70;;;5.30;;
76795;SDS011;65745;50.278;18.192;2023-03-31T14:59:10;10.30;;;5.50;;
76795;SDS011;65745;50.278;18.192;2023-03-31T15:01:48;9.40;;;6.90;;
76795;SDS011;65745;50.278;18.192;2023-03-31T15:04:21;8.10;;;6.00;;
76795;SDS011;65745;50.278;18.192;2023-03-31T15:07:10;7.00;;;4.20;;
76795;SDS011;65745;50.278;18.192;2023-03-31T15:09:45;5.20;;;4.30;;
76795;SDS011;65745;50.278;18.192;2023-03-31T15:14:53;8.40;;;5.80;;
76795;SDS011;65745;50.278;18.192;2023-03-31T15:17:28;8.00;;;4.80;;
76795;SDS011;65745;50.278;18.192;2023-03-31T15:23:16;9.10;;;6.50;;
76795;SDS011;65745;50.278;18.192;2023-03-31T15:25:55;11.50;;;6.90;;
76795;SDS011;65745;50.278;18.192;2023-03-31T15:28:32;9.10;;;6.30;;
76795;SDS011;65745;50.278;18.192;2023-03-31T15:31:10;8.60;;;6.20;;
76795;SDS011;65745;50.278;18.192;2023-03-31T15:33:44;10.60;;;8.20;;
76795;SDS011;65745;50.278;18.192;2023-03-31T15:36:17;11.20;;;7.70;;
76795;SDS011;65745;50.278;18.192;2023-03-31T15:38:55;9.60;;;6.10;;
76795;SDS011;65745;50.278;18.192;2023-03-31T15:41:29;9.20;;;5.50;;